Northway Airport
PAOR : now visible

Airfield :











YOU CAN JOIN US ON...

 
LOGIN :

Register | Disclaimer

   EN    FR    IT 

 









Legend :    VFR   Marginal VFR   IFR   Intensive IFR   Very Intensive IFR
Visi :
Ceiling :
>= 8 km
>= 3000ft
5 to 8 km
1000 to 3000 ft
1500m to 5 km
500 to 1000 ft
800 to 1500m
200 to 500 ft
< 800m
< 200 ft
Symbols :   Thunderstorms  Fog  Heavy snow  Heavy precipitations  Wind > 20 kt







- Airport Elevation : 1715 ft
- IATA code : ORT


PAOR - Northway

CURRENT METAR :
  • 180253Z AUTO 13003KT 10SM CLR 10/04 A2967 RMK AO2 SLP061 T01000039 56011 TSNO

EXPIRED METARs :
  • 180153Z 15007KT 10SM CLR 12/04 A2967 RMK AO2 SLP061 T01170039
  • 180053Z 12007KT 10SM CLR 11/04 A2969 RMK AO2 SLP065 T01110039

TAF PAOR
Valid from the 18 at 00:00 until the 19 at 00:00 UTC


172328Z 1800/1824 VRB04KT P6SM VCSH BKN035 BKN050 OVC100
FM180300 VRB04KT P6SM FEW035 SCT050 BKN100
FM181200 VRB04KT P6SM VCSH BKN035 BKN050 OVC100
No reported NOTAMs for that airfield.



MET'MAP, your aeronautical weather chart ! - Copyright ORBIFLY December 2007 - Disclaimer

ORBIFLY MET'MAP TEAM :

Programming & Development : Alexandra Zaïnal
Concept & Development : Baudouin d'Aumeries
Co-Development & Prog : Marc-Olivier Méhu
Technical & hardware support : Manuel Goepfert

Contact : metmap@orbifly.com




SOURCES & CREDITS :

   NOAA       Earth
Advisory